createdAt,value
2016-03-08T00:00:25.372Z,0
2016-03-08T00:01:25.281Z,0
2016-03-08T00:02:25.409Z,0
2016-03-08T00:03:25.411Z,0
2016-03-08T00:04:25.415Z,0
2016-03-08T00:05:25.402Z,0
2016-03-08T00:06:25.451Z,0
2016-03-08T00:07:25.408Z,0
2016-03-08T00:08:25.425Z,0
2016-03-08T00:09:25.381Z,0
2016-03-08T00:10:25.383Z,0
2016-03-08T00:11:25.386Z,0
2016-03-08T00:12:25.374Z,0
2016-03-08T00:13:25.220Z,0
2016-03-08T00:14:25.363Z,0
2016-03-08T00:15:25.350Z,0
2016-03-08T00:16:25.352Z,0
2016-03-08T00:17:25.325Z,0
2016-03-08T00:18:25.343Z,0
2016-03-08T00:19:25.345Z,0
2016-03-08T00:20:25.488Z,0
2016-03-08T00:21:25.304Z,0
2016-03-08T00:22:25.307Z,0
2016-03-08T00:23:25.310Z,0
2016-03-08T00:24:25.281Z,0
2016-03-08T00:25:25.236Z,0
2016-03-08T00:26:25.287Z,0
2016-03-08T00:27:25.273Z,0
2016-03-08T00:28:25.259Z,0
2016-03-08T00:29:25.279Z,0
2016-03-08T00:30:25.328Z,0
2016-03-08T00:31:25.253Z,0
2016-03-08T00:32:25.240Z,0
2016-03-08T00:33:25.305Z,0
2016-03-08T00:34:25.245Z,0
2016-03-08T00:35:25.404Z,0
2016-03-08T00:36:25.235Z,0
2016-03-08T00:37:25.206Z,0
2016-03-08T00:38:25.194Z,0
2016-03-08T00:39:25.197Z,0
2016-03-08T00:40:25.199Z,0
2016-03-08T00:41:25.186Z,0
2016-03-08T00:42:25.172Z,0
2016-03-08T00:43:25.207Z,0
2016-03-08T00:44:25.178Z,0
2016-03-08T00:45:25.196Z,0
2016-03-08T00:46:25.168Z,0
2016-03-08T00:47:25.170Z,0
2016-03-08T00:48:25.143Z,0
2016-03-08T00:49:25.129Z,0
2016-03-08T00:50:25.148Z,0
2016-03-08T00:51:25.119Z,0
2016-03-08T00:52:25.137Z,0
2016-03-08T00:53:25.093Z,0
2016-03-08T00:54:25.127Z,0
2016-03-08T00:55:25.176Z,0
2016-03-08T00:56:25.101Z,0
2016-03-08T00:57:25.120Z,0
2016-03-08T00:58:25.059Z,0
2016-03-08T00:59:25.079Z,0
2016-03-08T01:00:25.128Z,0
2016-03-08T01:01:25.068Z,0
2016-03-08T01:02:25.070Z,0
2016-03-08T01:03:25.042Z,0
2016-03-08T01:04:25.029Z,0
2016-03-08T01:05:25.047Z,0
2016-03-08T01:06:25.019Z,0
2016-03-08T01:07:25.022Z,0
2016-03-08T01:08:25.008Z,0
2016-03-08T01:09:24.995Z,0
2016-03-08T01:10:25.023Z,0
2016-03-08T01:11:24.997Z,0
2016-03-08T01:12:24.957Z,0
2016-03-08T01:13:24.962Z,0
2016-03-08T01:14:24.921Z,0
2016-03-08T01:15:24.963Z,0
2016-03-08T01:16:24.884Z,0
2016-03-08T01:17:24.867Z,0
2016-03-08T01:18:24.865Z,0
2016-03-08T01:19:24.848Z,0
2016-03-08T01:20:24.910Z,0
2016-03-08T01:21:24.850Z,0
2016-03-08T01:22:24.851Z,0
2016-03-08T01:23:24.867Z,0
2016-03-08T01:24:24.836Z,0
2016-03-08T01:25:24.902Z,0
2016-03-08T01:26:24.824Z,0
2016-03-08T01:27:24.827Z,0
2016-03-08T01:28:24.797Z,0
2016-03-08T01:29:24.768Z,0
2016-03-08T01:30:24.817Z,0
2016-03-08T01:31:24.773Z,0
2016-03-08T01:32:24.759Z,0
2016-03-08T01:33:24.761Z,0
2016-03-08T01:34:24.780Z,0
2016-03-08T01:35:24.735Z,0
2016-03-08T01:36:24.753Z,0
2016-03-08T01:37:24.741Z,0
2016-03-08T01:38:24.727Z,0
2016-03-08T01:39:24.714Z,0
2016-03-08T01:40:24.718Z,0
2016-03-08T01:41:24.735Z,0
2016-03-08T01:42:24.551Z,0
2016-03-08T01:43:24.709Z,0
2016-03-08T01:44:24.712Z,0
2016-03-08T01:45:24.746Z,0
2016-03-08T01:46:24.656Z,0
2016-03-08T01:47:24.658Z,0
2016-03-08T01:48:24.614Z,0
2016-03-08T01:49:24.647Z,0
2016-03-08T01:50:24.667Z,0
2016-03-08T01:51:24.669Z,0
2016-03-08T01:52:24.655Z,0
2016-03-08T01:53:24.642Z,0
2016-03-08T01:54:24.708Z,0
2016-03-08T01:55:24.694Z,0
2016-03-08T01:56:24.620Z,0
2016-03-08T01:57:24.653Z,0
2016-03-08T01:58:24.609Z,0
2016-03-08T01:59:24.597Z,0
2016-03-08T02:00:24.615Z,0
2016-03-08T02:01:24.586Z,0
2016-03-08T02:02:24.588Z,0
2016-03-08T02:03:24.607Z,0
2016-03-08T02:04:24.610Z,0
2016-03-08T02:05:24.582Z,0
2016-03-08T02:06:24.538Z,0
2016-03-08T02:07:24.540Z,0
2016-03-08T02:08:24.542Z,0
2016-03-08T02:09:24.530Z,0
2016-03-08T02:10:24.548Z,0
2016-03-08T02:11:24.519Z,0
2016-03-08T02:12:24.507Z,0
2016-03-08T02:13:24.540Z,0
2016-03-08T02:14:24.512Z,0
2016-03-08T02:15:24.546Z,0
2016-03-08T02:16:24.533Z,0
2016-03-08T02:17:24.473Z,0
2016-03-08T02:18:24.367Z,0
2016-03-08T02:19:24.478Z,0
2016-03-08T02:20:24.559Z,0
2016-03-08T02:21:24.467Z,0
2016-03-08T02:22:24.470Z,0
2016-03-08T02:23:24.505Z,0
2016-03-08T02:24:24.445Z,0
2016-03-08T02:25:24.447Z,0
2016-03-08T02:26:24.466Z,0
2016-03-08T02:27:24.422Z,0
2016-03-08T02:28:24.424Z,0
2016-03-08T02:29:24.443Z,0
2016-03-08T02:30:24.429Z,0
2016-03-08T02:31:24.417Z,0
2016-03-08T02:32:24.419Z,0
2016-03-08T02:33:24.250Z,0
2016-03-08T02:34:24.238Z,0
2016-03-08T02:35:24.302Z,0
2016-03-08T02:36:24.383Z,0
2016-03-08T02:37:24.386Z,0
2016-03-08T02:38:24.389Z,0
2016-03-08T02:39:24.345Z,0
2016-03-08T02:40:24.393Z,0
2016-03-08T02:41:24.366Z,0
2016-03-08T02:42:24.368Z,0
2016-03-08T02:43:24.371Z,0
2016-03-08T02:44:24.359Z,0
2016-03-08T02:45:24.361Z,0
2016-03-08T02:46:24.347Z,0
2016-03-08T02:47:24.335Z,0
2016-03-08T02:48:24.322Z,0
2016-03-08T02:49:24.293Z,0
2016-03-08T02:50:24.312Z,0
2016-03-08T02:51:24.298Z,0
2016-03-08T02:52:24.301Z,0
2016-03-08T02:53:24.320Z,0
2016-03-08T02:54:24.322Z,0
2016-03-08T02:55:24.278Z,0
2016-03-08T02:56:24.327Z,0
2016-03-08T02:57:24.269Z,0
2016-03-08T02:58:24.255Z,0
2016-03-08T02:59:24.241Z,0
2016-03-08T03:00:24.260Z,0
2016-03-08T03:01:24.263Z,0
2016-03-08T03:02:24.266Z,0
2016-03-08T03:03:24.206Z,0
2016-03-08T03:04:24.224Z,0
2016-03-08T03:05:24.305Z,0
2016-03-08T03:06:24.214Z,0
2016-03-08T03:07:24.202Z,0
2016-03-08T03:08:24.188Z,0
2016-03-08T03:09:24.190Z,0
2016-03-08T03:10:24.210Z,0
2016-03-08T03:11:24.181Z,0
2016-03-08T03:12:24.184Z,0
2016-03-08T03:13:24.171Z,0
2016-03-08T03:14:24.173Z,0
2016-03-08T03:15:24.253Z,0
2016-03-08T03:16:24.148Z,0
2016-03-08T03:17:24.165Z,0
2016-03-08T03:18:24.121Z,0
2016-03-08T03:19:24.123Z,0
2016-03-08T03:20:24.205Z,0
2016-03-08T03:21:24.114Z,0
2016-03-08T03:22:24.117Z,0
2016-03-08T03:23:24.120Z,0
2016-03-08T03:24:24.106Z,0
2016-03-08T03:25:24.108Z,0
2016-03-08T03:26:24.112Z,0
2016-03-08T03:27:24.114Z,0
2016-03-08T03:28:24.086Z,0
2016-03-08T03:29:24.088Z,0
2016-03-08T03:30:24.060Z,0
2016-03-08T03:31:24.047Z,0
2016-03-08T03:32:24.066Z,0
2016-03-08T03:33:24.037Z,0
2016-03-08T03:34:24.055Z,0
2016-03-08T03:35:24.041Z,0
2016-03-08T03:36:24.077Z,0
2016-03-08T03:37:24.032Z,0
2016-03-08T03:38:24.034Z,0
2016-03-08T03:39:23.865Z,0
2016-03-08T03:40:23.868Z,0
2016-03-08T03:41:24.011Z,0
2016-03-08T03:42:24.015Z,0
2016-03-08T03:43:23.985Z,0
2016-03-08T03:44:23.973Z,0
2016-03-08T03:45:24.053Z,0
2016-03-08T03:46:24.009Z,0
2016-03-08T03:47:23.965Z,0
2016-03-08T03:48:23.967Z,0
2016-03-08T03:49:23.970Z,0
2016-03-08T03:50:23.942Z,0
2016-03-08T03:51:23.944Z,0
2016-03-08T03:52:23.948Z,0
2016-03-08T03:53:23.950Z,0
2016-03-08T03:54:23.922Z,0
2016-03-08T03:55:23.971Z,0
2016-03-08T03:56:23.927Z,0
2016-03-08T03:57:23.930Z,0
2016-03-08T03:58:23.900Z,0
2016-03-08T03:59:23.903Z,0
2016-03-08T04:00:23.922Z,0
2016-03-08T04:01:23.908Z,0
2016-03-08T04:02:23.912Z,0
2016-03-08T04:03:23.867Z,0
2016-03-08T04:04:23.869Z,0
2016-03-08T04:05:23.872Z,0
2016-03-08T04:06:23.885Z,0
2016-03-08T04:07:23.873Z,0
2016-03-08T04:08:23.843Z,0
2016-03-08T04:09:23.831Z,0
2016-03-08T04:10:23.881Z,0
2016-03-08T04:11:23.851Z,0
2016-03-08T04:12:23.823Z,0
2016-03-08T04:13:23.810Z,0
2016-03-08T04:14:23.828Z,0
2016-03-08T04:15:23.816Z,0
2016-03-08T04:16:23.803Z,0
2016-03-08T04:17:23.790Z,0
2016-03-08T04:18:23.808Z,0
2016-03-08T04:19:23.795Z,0
2016-03-08T04:20:23.922Z,0
2016-03-08T04:21:23.785Z,0
2016-03-08T04:22:23.896Z,0
2016-03-08T04:23:23.790Z,0
2016-03-08T04:24:23.761Z,0
2016-03-08T04:25:23.764Z,0
2016-03-08T04:26:23.752Z,0
2016-03-08T04:27:23.754Z,0
2016-03-08T04:28:23.741Z,0
2016-03-08T04:29:23.728Z,0
2016-03-08T04:30:23.762Z,0
2016-03-08T04:31:23.718Z,0
2016-03-08T04:32:23.735Z,0
2016-03-08T04:33:23.708Z,0
2016-03-08T04:34:23.695Z,0
2016-03-08T04:35:23.698Z,0
2016-03-08T04:36:23.763Z,0
2016-03-08T04:37:23.687Z,0
2016-03-08T04:38:23.706Z,0
2016-03-08T04:39:23.677Z,0
2016-03-08T04:40:23.664Z,0
2016-03-08T04:41:23.714Z,0
2016-03-08T04:42:23.653Z,0
2016-03-08T04:43:23.657Z,0
2016-03-08T04:44:23.675Z,0
2016-03-08T04:45:23.521Z,0
2016-03-08T04:46:23.649Z,0
2016-03-08T04:47:23.651Z,0
2016-03-08T04:48:23.639Z,0
2016-03-08T04:49:23.657Z,0
2016-03-08T04:50:23.707Z,0
2016-03-08T04:51:23.600Z,0
2016-03-08T04:52:23.602Z,0
2016-03-08T04:53:23.605Z,0
2016-03-08T04:54:23.592Z,0
2016-03-08T04:55:23.672Z,0
2016-03-08T04:56:23.598Z,0
2016-03-08T04:57:23.585Z,0
2016-03-08T04:58:23.571Z,0
2016-03-08T04:59:23.590Z,0
2016-03-08T05:00:23.686Z,0
2016-03-08T05:01:23.549Z,0
2016-03-08T05:02:23.566Z,0
2016-03-08T05:03:23.569Z,0
2016-03-08T05:04:23.541Z,0
2016-03-08T05:05:23.528Z,0
2016-03-08T05:06:23.516Z,0
2016-03-08T05:07:23.534Z,0
2016-03-08T05:08:23.505Z,0
2016-03-08T05:09:23.507Z,0
2016-03-08T05:10:23.557Z,0
2016-03-08T05:11:23.513Z,0
2016-03-08T05:12:23.531Z,0
2016-03-08T05:13:23.487Z,0
2016-03-08T05:14:23.490Z,0
2016-03-08T05:15:23.476Z,0
2016-03-08T05:16:23.480Z,0
2016-03-08T05:17:23.467Z,0
2016-03-08T05:18:23.454Z,0
2016-03-08T05:19:23.487Z,0
2016-03-08T05:20:23.444Z,0
2016-03-08T05:21:23.446Z,0
2016-03-08T05:22:23.464Z,0
2016-03-08T05:23:23.451Z,0
2016-03-08T05:24:23.423Z,0
2016-03-08T05:25:23.457Z,0
2016-03-08T05:26:23.428Z,0
2016-03-08T05:27:23.416Z,0
2016-03-08T05:28:23.402Z,0
2016-03-08T05:29:23.421Z,0
2016-03-08T05:30:23.407Z,0
2016-03-08T05:31:23.395Z,0
2016-03-08T05:32:23.382Z,0
2016-03-08T05:33:23.399Z,0
2016-03-08T05:34:23.131Z,0
2016-03-08T05:35:23.499Z,0
2016-03-08T05:36:23.180Z,0
2016-03-08T05:37:29.054Z,0
2016-03-08T05:38:24.641Z,0
2016-03-08T05:39:23.690Z,0
2016-03-08T05:40:23.317Z,0
2016-03-08T05:41:23.351Z,0
2016-03-08T05:42:23.338Z,0
2016-03-08T05:43:23.295Z,0
2016-03-08T05:44:23.297Z,0
2016-03-08T05:45:23.331Z,0
2016-03-08T05:46:23.303Z,0
2016-03-08T05:47:23.289Z,0
2016-03-08T05:48:23.323Z,0
2016-03-08T05:49:23.208Z,0
2016-03-08T05:50:23.258Z,0
2016-03-08T05:51:23.260Z,0
2016-03-08T05:52:23.263Z,0
2016-03-08T05:53:23.266Z,0
2016-03-08T05:54:23.284Z,0
2016-03-08T05:55:23.271Z,0
2016-03-08T05:56:23.243Z,0
2016-03-08T05:57:23.073Z,0
2016-03-08T05:58:23.107Z,0
2016-03-08T05:59:23.251Z,0
2016-03-08T06:00:23.331Z,0
2016-03-08T06:01:23.209Z,0
2016-03-08T06:02:23.211Z,0
2016-03-08T06:03:23.199Z,5
2016-03-08T06:04:23.232Z,5
2016-03-08T06:05:23.251Z,5
2016-03-08T06:06:23.195Z,5
2016-03-08T06:07:23.215Z,5
2016-03-08T06:08:23.155Z,5
2016-03-08T06:09:23.172Z,5
2016-03-08T06:10:23.425Z,5
2016-03-08T06:11:23.288Z,5
2016-03-08T06:12:23.478Z,5
2016-03-08T06:13:23.152Z,5
2016-03-08T06:14:23.139Z,5
2016-03-08T06:15:23.189Z,5
2016-03-08T06:16:23.144Z,5
2016-03-08T06:17:23.117Z,10
2016-03-08T06:18:23.119Z,10
2016-03-08T06:19:23.138Z,10
2016-03-08T06:20:23.140Z,10
2016-03-08T06:21:23.096Z,10
2016-03-08T06:22:23.083Z,10
2016-03-08T06:23:23.101Z,10
2016-03-08T06:24:23.088Z,10
2016-03-08T06:25:23.044Z,15
2016-03-08T06:26:23.079Z,15
2016-03-08T06:27:23.081Z,15
2016-03-08T06:28:23.084Z,15
2016-03-08T06:29:23.054Z,15
2016-03-08T06:30:23.057Z,15
2016-03-08T06:31:23.044Z,20
2016-03-08T06:32:23.063Z,20
2016-03-08T06:33:23.050Z,20
2016-03-08T06:34:23.100Z,20
2016-03-08T06:35:23.023Z,20
2016-03-08T06:36:23.026Z,20
2016-03-08T06:37:23.029Z,20
2016-03-08T06:38:23.000Z,25
2016-03-08T06:39:22.879Z,25
2016-03-08T06:40:23.100Z,25
2016-03-08T06:41:22.993Z,25
2016-03-08T06:42:22.886Z,25
2016-03-08T06:43:22.983Z,25
2016-03-08T06:44:23.002Z,25
2016-03-08T06:45:23.004Z,30
2016-03-08T06:46:23.069Z,30
2016-03-08T06:47:22.963Z,30
2016-03-08T06:48:22.980Z,35
2016-03-08T06:49:23.016Z,35
2016-03-08T06:50:22.955Z,35
2016-03-08T06:51:22.942Z,40
2016-03-08T06:52:22.944Z,40
2016-03-08T06:53:22.963Z,40
2016-03-08T06:54:22.935Z,40
2016-03-08T06:55:22.999Z,40
2016-03-08T06:56:22.940Z,40
2016-03-08T06:57:22.912Z,40
2016-03-08T06:58:22.915Z,40
2016-03-08T06:59:22.917Z,40
2016-03-08T07:00:22.904Z,45
2016-03-08T07:01:22.923Z,40
2016-03-08T07:02:22.940Z,40
2016-03-08T07:03:22.880Z,45
2016-03-08T07:04:22.774Z,50
2016-03-08T07:05:22.933Z,50
2016-03-08T07:06:22.872Z,50
2016-03-08T07:07:22.859Z,50
2016-03-08T07:08:22.894Z,50
2016-03-08T07:09:22.881Z,45
2016-03-08T07:10:22.853Z,45
2016-03-08T07:11:22.871Z,45
2016-03-08T07:12:22.873Z,45
2016-03-08T07:13:22.844Z,45
2016-03-08T07:14:22.847Z,50
2016-03-08T07:15:22.960Z,55
2016-03-08T07:16:22.838Z,55
2016-03-08T07:17:22.840Z,60
2016-03-08T07:18:22.843Z,65
2016-03-08T07:19:22.971Z,65
2016-03-08T07:20:22.832Z,65
2016-03-08T07:21:22.820Z,65
2016-03-08T07:22:22.838Z,65
2016-03-08T07:23:22.794Z,70
2016-03-08T07:24:22.812Z,70
2016-03-08T07:25:22.830Z,70
2016-03-08T07:26:22.802Z,75
2016-03-08T07:27:22.851Z,70
2016-03-08T07:28:22.791Z,75
2016-03-08T07:29:22.794Z,75
2016-03-08T07:30:22.843Z,75
2016-03-08T07:31:22.768Z,75
2016-03-08T07:32:22.771Z,75
2016-03-08T07:33:22.805Z,75
2016-03-08T07:34:22.807Z,75
2016-03-08T07:35:22.795Z,70
2016-03-08T07:36:22.782Z,70
2016-03-08T07:37:22.815Z,65
2016-03-08T07:38:22.755Z,65
2016-03-08T07:39:22.758Z,65
2016-03-08T07:40:22.808Z,65
2016-03-08T07:41:22.795Z,65
2016-03-08T07:42:22.751Z,65
2016-03-08T07:43:22.723Z,65
2016-03-08T07:44:22.725Z,65
2016-03-08T07:45:22.743Z,65
2016-03-08T07:46:22.778Z,70
2016-03-08T07:47:22.733Z,65
2016-03-08T07:48:22.705Z,60
2016-03-08T07:49:22.597Z,60
2016-03-08T07:50:22.741Z,60
2016-03-08T07:51:22.697Z,60
2016-03-08T07:52:22.699Z,65
2016-03-08T07:53:22.734Z,65
2016-03-08T07:54:22.580Z,65
2016-03-08T07:55:22.802Z,65
2016-03-08T07:56:22.695Z,65
2016-03-08T07:57:22.729Z,70
2016-03-08T07:58:22.685Z,70
2016-03-08T07:59:22.748Z,70
2016-03-08T08:00:22.782Z,75
2016-03-08T08:01:22.675Z,75
2016-03-08T08:02:22.677Z,80
2016-03-08T08:03:22.680Z,80
2016-03-08T08:04:22.683Z,85
2016-03-08T08:05:22.717Z,85
2016-03-08T08:06:22.688Z,85
2016-03-08T08:07:22.660Z,90
2016-03-08T08:08:22.663Z,90
2016-03-08T08:09:22.634Z,95
2016-03-08T08:10:22.699Z,95
2016-03-08T08:11:22.624Z,95
2016-03-08T08:12:22.642Z,95
2016-03-08T08:13:22.644Z,95
2016-03-08T08:14:22.617Z,95
2016-03-08T08:15:22.681Z,90
2016-03-08T08:16:22.606Z,90
2016-03-08T08:17:22.640Z,95
2016-03-08T08:18:22.595Z,95
2016-03-08T08:19:22.630Z,100
2016-03-08T08:20:22.679Z,100
2016-03-08T08:21:22.589Z,95
2016-03-08T08:22:22.606Z,95
2016-03-08T08:23:22.624Z,95
2016-03-08T08:24:22.580Z,95
2016-03-08T08:25:22.599Z,95
2016-03-08T08:26:22.555Z,95
2016-03-08T08:27:22.605Z,95
2016-03-08T08:28:22.576Z,95
2016-03-08T08:29:22.579Z,95
2016-03-08T08:30:22.691Z,95
2016-03-08T08:31:22.552Z,100
2016-03-08T08:32:22.602Z,95
2016-03-08T08:33:22.652Z,95
2016-03-08T08:34:22.529Z,95
2016-03-08T08:35:22.610Z,95
2016-03-08T08:36:22.519Z,95
2016-03-08T08:37:22.553Z,100
2016-03-08T08:38:22.509Z,100
2016-03-08T08:39:22.527Z,105
2016-03-08T08:40:22.546Z,105
2016-03-08T08:41:22.533Z,110
2016-03-08T08:42:22.504Z,110
2016-03-08T08:43:22.507Z,110
2016-03-08T08:44:22.478Z,110
2016-03-08T08:45:22.575Z,110
2016-03-08T08:46:22.499Z,115
2016-03-08T08:47:22.455Z,115
2016-03-08T08:48:22.489Z,120
2016-03-08T08:49:22.475Z,120
2016-03-08T08:50:22.541Z,120
2016-03-08T08:51:22.481Z,120
2016-03-08T08:52:22.484Z,120
2016-03-08T08:53:22.471Z,120
2016-03-08T08:54:22.474Z,125
2016-03-08T08:55:22.492Z,125
2016-03-08T08:56:22.464Z,130
2016-03-08T08:57:22.466Z,130
2016-03-08T08:58:22.453Z,130
2016-03-08T08:59:22.456Z,135
2016-03-08T09:00:22.521Z,135
2016-03-08T09:01:22.446Z,130
2016-03-08T09:02:22.433Z,130
2016-03-08T09:03:22.451Z,130
2016-03-08T09:04:22.438Z,130
2016-03-08T09:05:22.487Z,130
2016-03-08T09:06:22.429Z,130
2016-03-08T09:07:22.446Z,130
2016-03-08T09:08:22.418Z,135
2016-03-08T09:09:22.405Z,135
2016-03-08T09:10:22.470Z,140
2016-03-08T09:11:22.395Z,140
2016-03-08T09:12:22.445Z,140
2016-03-08T09:13:21.650Z,150
2016-03-08T09:14:22.409Z,155
2016-03-08T09:15:22.428Z,160
2016-03-08T09:16:22.415Z,170
2016-03-08T09:17:22.386Z,175
2016-03-08T09:18:22.435Z,175
2016-03-08T09:19:22.408Z,175
2016-03-08T09:20:22.394Z,175
2016-03-08T09:21:22.397Z,175
2016-03-08T09:22:22.400Z,170
2016-03-08T09:23:22.355Z,165
2016-03-08T09:24:22.374Z,155
2016-03-08T09:25:22.408Z,150
2016-03-08T09:26:22.380Z,150
2016-03-08T09:27:22.382Z,145
2016-03-08T09:28:22.354Z,140
2016-03-08T09:29:22.372Z,140
2016-03-08T09:30:22.359Z,140
2016-03-08T09:31:22.346Z,135
2016-03-08T09:32:22.411Z,130
2016-03-08T09:33:22.367Z,125
2016-03-08T09:34:22.353Z,125
2016-03-08T09:35:22.357Z,115
2016-03-08T09:36:22.359Z,120
2016-03-08T09:37:22.345Z,115
2016-03-08T09:38:22.192Z,115
2016-03-08T09:39:22.336Z,115
2016-03-08T09:40:22.339Z,115
2016-03-08T09:41:22.326Z,115
2016-03-08T09:42:22.328Z,120
2016-03-08T09:43:22.347Z,120
2016-03-08T09:44:22.364Z,120
2016-03-08T09:45:22.337Z,120
2016-03-08T09:46:22.355Z,120
2016-03-08T09:47:22.326Z,120
2016-03-08T09:48:22.345Z,120
2016-03-08T09:49:22.332Z,120
2016-03-08T09:50:22.335Z,120
2016-03-08T09:51:22.322Z,120
2016-03-08T09:52:22.293Z,120
2016-03-08T09:53:22.327Z,120
2016-03-08T09:54:22.298Z,120
2016-03-08T09:55:22.301Z,125
2016-03-08T09:56:22.319Z,125
2016-03-08T09:57:22.368Z,130
2016-03-08T09:58:22.356Z,135
2016-03-08T09:59:22.280Z,140
2016-03-08T10:00:22.330Z,140
2016-03-08T10:01:22.317Z,145
2016-03-08T10:02:22.273Z,145
2016-03-08T10:03:22.322Z,150
2016-03-08T10:04:22.279Z,150
2016-03-08T10:05:22.296Z,155
2016-03-08T10:06:22.284Z,155
2016-03-08T10:07:22.272Z,155
2016-03-08T10:08:22.290Z,160
2016-03-08T10:09:22.262Z,160
2016-03-08T10:10:22.327Z,165
2016-03-08T10:11:22.267Z,170
2016-03-08T10:12:22.270Z,175
2016-03-08T10:13:22.257Z,185
2016-03-08T10:14:22.259Z,185
2016-03-08T10:15:22.418Z,190
2016-03-08T10:16:22.258Z,195
2016-03-08T10:17:22.236Z,200
2016-03-08T10:18:22.244Z,205
2016-03-08T10:19:22.206Z,205
2016-03-08T10:20:22.246Z,210
2016-03-08T10:21:22.210Z,220
2016-03-08T10:22:21.945Z,225
2016-03-08T10:23:22.162Z,230
2016-03-08T10:24:22.192Z,230
2016-03-08T10:25:22.192Z,235
2016-03-08T10:26:22.177Z,240
2016-03-08T10:27:22.022Z,245
2016-03-08T10:28:22.149Z,250
2016-03-08T10:29:22.182Z,255
2016-03-08T10:30:22.167Z,250
2016-03-08T10:31:22.185Z,245
2016-03-08T10:32:22.156Z,240
2016-03-08T10:33:22.142Z,240
2016-03-08T10:34:22.144Z,240
2016-03-08T10:35:22.147Z,250
2016-03-08T10:36:22.180Z,235
2016-03-08T10:37:22.152Z,235
2016-03-08T10:38:22.154Z,230
2016-03-08T10:39:22.141Z,230
2016-03-08T10:40:22.768Z,230
2016-03-08T10:41:22.192Z,230
2016-03-08T10:42:22.195Z,225
2016-03-08T10:43:22.119Z,220
2016-03-08T10:44:22.138Z,225
2016-03-08T10:45:22.125Z,230
2016-03-08T10:46:21.987Z,235
2016-03-08T10:47:22.131Z,225
2016-03-08T10:48:22.149Z,220
2016-03-08T10:49:22.120Z,215
2016-03-08T10:50:22.171Z,215
2016-03-08T10:51:22.110Z,215
2016-03-08T10:52:22.112Z,225
2016-03-08T10:53:22.100Z,225
2016-03-08T10:54:22.102Z,225
2016-03-08T10:55:22.215Z,225
2016-03-08T10:56:22.108Z,225
2016-03-08T10:57:22.110Z,230
2016-03-08T10:58:22.112Z,235
2016-03-08T10:59:22.101Z,235
2016-03-08T11:00:22.165Z,240
2016-03-08T11:01:22.105Z,240
2016-03-08T11:02:22.124Z,235
2016-03-08T11:03:22.111Z,230
2016-03-08T11:04:22.114Z,225
2016-03-08T11:05:22.148Z,230
2016-03-08T11:06:22.103Z,235
2016-03-08T11:07:22.091Z,240
2016-03-08T11:08:22.094Z,240
2016-03-08T11:09:22.096Z,240
2016-03-08T11:10:22.145Z,245
2016-03-08T11:11:22.070Z,245
2016-03-08T11:12:22.119Z,250
2016-03-08T11:13:22.092Z,250
2016-03-08T11:14:22.110Z,255
2016-03-08T11:15:22.127Z,255
2016-03-08T11:16:22.053Z,255
2016-03-08T11:17:22.071Z,260
2016-03-08T11:18:22.073Z,260
2016-03-08T11:19:22.123Z,255
2016-03-08T11:20:21.969Z,260
2016-03-08T11:21:22.082Z,265
2016-03-08T11:22:22.068Z,260
2016-03-08T11:23:22.618Z,260
2016-03-08T11:24:22.073Z,260
2016-03-08T11:25:22.154Z,260
2016-03-08T11:26:22.157Z,260
2016-03-08T11:27:22.065Z,255
2016-03-08T11:28:22.054Z,250
2016-03-08T11:29:22.071Z,250
2016-03-08T11:30:22.106Z,250
2016-03-08T11:31:22.062Z,250
2016-03-08T11:32:22.048Z,250
2016-03-08T11:33:22.051Z,245
2016-03-08T11:34:22.070Z,245
2016-03-08T11:35:22.087Z,245
2016-03-08T11:36:22.028Z,245
2016-03-08T11:37:22.092Z,245
2016-03-08T11:38:22.034Z,245
2016-03-08T11:39:21.911Z,250
2016-03-08T11:40:22.100Z,250
2016-03-08T11:41:22.198Z,260
2016-03-08T11:42:22.044Z,255
2016-03-08T11:43:22.093Z,260
2016-03-08T11:44:22.034Z,260
2016-03-08T11:45:22.115Z,260
2016-03-08T11:46:22.039Z,270
2016-03-08T11:47:22.058Z,290
2016-03-08T11:48:22.030Z,265
2016-03-08T11:49:22.047Z,265
2016-03-08T11:50:22.065Z,275
2016-03-08T11:51:22.021Z,260
2016-03-08T11:52:22.040Z,255
2016-03-08T11:53:22.026Z,250
2016-03-08T11:54:22.045Z,250
2016-03-08T11:55:22.032Z,250
2016-03-08T11:56:22.019Z,250
2016-03-08T11:57:22.053Z,250
2016-03-08T11:58:21.899Z,250
2016-03-08T11:59:22.043Z,245
2016-03-08T12:00:22.061Z,245
2016-03-08T12:01:22.033Z,245
2016-03-08T12:02:22.020Z,255
2016-03-08T12:03:22.053Z,270
2016-03-08T12:04:22.057Z,265
2016-03-08T12:05:22.122Z,260
2016-03-08T12:06:22.032Z,260
2016-03-08T12:07:22.035Z,260
2016-03-08T12:08:22.038Z,260
2016-03-08T12:09:22.025Z,245
2016-03-08T12:10:22.043Z,245
2016-03-08T12:11:22.015Z,250
2016-03-08T12:12:22.049Z,260
2016-03-08T12:13:22.020Z,270
2016-03-08T12:14:22.038Z,270
2016-03-08T12:15:22.026Z,275
2016-03-08T12:16:22.029Z,275
2016-03-08T12:17:22.031Z,285
2016-03-08T12:18:22.018Z,290
2016-03-08T12:19:22.021Z,295
2016-03-08T12:20:22.070Z,305
2016-03-08T12:21:22.041Z,300
2016-03-08T12:22:22.029Z,295
2016-03-08T12:23:22.031Z,285
2016-03-08T12:24:22.034Z,250
2016-03-08T12:25:22.037Z,230
2016-03-08T12:26:22.070Z,225
2016-03-08T12:27:22.011Z,215
2016-03-08T12:28:22.028Z,210
2016-03-08T12:29:22.001Z,205
2016-03-08T12:30:22.128Z,225
2016-03-08T12:31:22.022Z,220
2016-03-08T12:32:22.025Z,200
2016-03-08T12:33:22.027Z,210
2016-03-08T12:34:22.014Z,230
2016-03-08T12:35:22.079Z,230
2016-03-08T12:36:22.035Z,240
2016-03-08T12:37:22.022Z,235
2016-03-08T12:38:22.024Z,250
2016-03-08T12:39:22.012Z,265
2016-03-08T12:40:22.030Z,275
2016-03-08T12:41:22.032Z,270
2016-03-08T12:42:22.004Z,275
2016-03-08T12:43:22.007Z,275
2016-03-08T12:44:22.010Z,275
2016-03-08T12:45:22.027Z,265
2016-03-08T12:46:22.016Z,250
2016-03-08T12:47:21.987Z,270
2016-03-08T12:48:22.035Z,265
2016-03-08T12:49:21.993Z,255
2016-03-08T12:50:22.182Z,240
2016-03-08T12:51:21.997Z,235
2016-03-08T12:52:22.000Z,230
2016-03-08T12:53:22.003Z,220
2016-03-08T12:54:21.912Z,220
2016-03-08T12:55:22.086Z,225
2016-03-08T12:56:21.995Z,220
2016-03-08T12:57:21.998Z,210
2016-03-08T12:58:22.000Z,205
2016-03-08T12:59:21.987Z,210
2016-03-08T13:00:22.084Z,215
2016-03-08T13:01:22.009Z,225
2016-03-08T13:02:22.011Z,235
2016-03-08T13:03:21.983Z,250
2016-03-08T13:04:21.220Z,250
2016-03-08T13:05:22.097Z,245
2016-03-08T13:06:21.864Z,245
2016-03-08T13:07:22.007Z,220
2016-03-08T13:08:22.027Z,245
2016-03-08T13:09:21.998Z,245
2016-03-08T13:10:22.031Z,250
2016-03-08T13:11:21.971Z,230
2016-03-08T13:12:21.974Z,245
2016-03-08T13:13:21.977Z,255
2016-03-08T13:14:21.979Z,260
2016-03-08T13:15:22.092Z,260
2016-03-08T13:16:21.954Z,255
2016-03-08T13:17:21.988Z,235
2016-03-08T13:18:21.975Z,230
2016-03-08T13:19:21.978Z,225
2016-03-08T13:20:22.011Z,230
2016-03-08T13:21:21.983Z,230
2016-03-08T13:22:21.955Z,210
2016-03-08T13:23:21.973Z,205
2016-03-08T13:24:21.991Z,205
2016-03-08T13:25:22.025Z,205
2016-03-08T13:26:21.981Z,205
2016-03-08T13:27:21.968Z,205
2016-03-08T13:28:21.971Z,200
2016-03-08T13:29:21.958Z,200
2016-03-08T13:30:22.007Z,205
2016-03-08T13:31:21.963Z,230
2016-03-08T13:32:21.966Z,240
2016-03-08T13:33:21.969Z,245
2016-03-08T13:34:21.987Z,220
2016-03-08T13:35:21.832Z,245
2016-03-08T13:36:21.961Z,245
2016-03-08T13:37:21.948Z,225
2016-03-08T13:38:21.982Z,225
2016-03-08T13:39:21.797Z,230
2016-03-08T13:40:21.862Z,245
2016-03-08T13:41:21.943Z,235
2016-03-08T13:42:21.929Z,235
2016-03-08T13:43:21.933Z,240
2016-03-08T13:44:21.935Z,245
2016-03-08T13:45:21.954Z,250
2016-03-08T13:46:21.941Z,250
2016-03-08T13:47:21.959Z,250
2016-03-08T13:48:21.946Z,240
2016-03-08T13:49:21.933Z,230
2016-03-08T13:50:22.014Z,230
2016-03-08T13:51:21.954Z,230
2016-03-08T13:52:21.938Z,225
2016-03-08T13:53:24.957Z,195
2016-03-08T13:54:21.928Z,195
2016-03-08T13:55:22.024Z,190
2016-03-08T13:56:21.933Z,180
2016-03-08T13:57:21.983Z,175
2016-03-08T13:58:21.939Z,165
2016-03-08T13:59:21.941Z,160
2016-03-08T14:00:21.944Z,155
2016-03-08T14:01:21.916Z,155
2016-03-08T14:02:21.919Z,155
2016-03-08T14:03:21.921Z,155
2016-03-08T14:04:21.955Z,160
2016-03-08T14:05:21.943Z,165
2016-03-08T14:06:21.913Z,185
2016-03-08T14:07:21.931Z,190
2016-03-08T14:08:21.919Z,180
2016-03-08T14:09:21.953Z,190
2016-03-08T14:10:21.940Z,190
2016-03-08T14:11:21.912Z,175
2016-03-08T14:12:21.914Z,180
2016-03-08T14:13:21.917Z,185
2016-03-08T14:14:21.934Z,185
2016-03-08T14:15:21.969Z,180
2016-03-08T14:16:21.909Z,185